METAR Data
IDs: Format: Raw Decoded Include TAF

Data at: 1159 UTC 26 Feb 2021

EDDS 261150Z 01007KT 340V040 CAVOK 15/04 Q1029 NOSIG